Niigata Airport
RJSN : now visible

Airfield :











YOU CAN JOIN US ON...

 
LOGIN :

Register | Disclaimer

   EN    FR    IT 

 









Legend :    VFR   Marginal VFR   IFR   Intensive IFR   Very Intensive IFR
Visi :
Ceiling :
>= 8 km
>= 3000ft
5 to 8 km
1000 to 3000 ft
1500m to 5 km
500 to 1000 ft
800 to 1500m
200 to 500 ft
< 800m
< 200 ft
Symbols :   Thunderstorms  Fog  Heavy snow  Heavy precipitations  Wind > 20 kt







- Airport Elevation : 29 ft
- IATA code : KIJ


RJSN - Niigata

METAR N/A
TAF TAF RJSN
Valid from the 26 at 12:00 until the 27 at 18:00 UTC


261105Z 2612/2718 26008KT 6000 -SHRA FEW008 BKN012
TEMPO 2612/2618 4000 -SHRA BR FEW005 BKN008
TEMPO 2618/2700 2000 SHRA BR FEW003 BKN005
BECMG 2622/2700 32020KT
TEMPO 2703/2712 4000 -SHRA BR FEW005 BKN008
RJJJ FIR / Asia



MET'MAP, your aeronautical weather chart ! - Copyright ORBIFLY December 2007 - Disclaimer

ORBIFLY MET'MAP TEAM :

Programming & Development : Alexandra Zaïnal
Concept & Development : Baudouin d'Aumeries
Co-Development & Prog : Marc-Olivier Méhu
Technical & hardware support : Manuel Goepfert

Contact : metmap@orbifly.com




SOURCES & CREDITS :

   NOAA       Earth
Advisory